createdAt,value
2018-09-05T00:00:17.128Z,14.67
2018-09-05T00:01:17.122Z,14.66
2018-09-05T00:02:16.401Z,14.62
2018-09-05T00:03:16.675Z,14.59
2018-09-05T00:04:16.943Z,14.59
2018-09-05T00:05:16.226Z,14.55
2018-09-05T00:06:16.496Z,14.55
2018-09-05T00:07:16.768Z,14.52
2018-09-05T00:08:17.044Z,14.50
2018-09-05T00:09:16.301Z,14.47
2018-09-05T00:10:16.581Z,14.46
2018-09-05T00:11:16.625Z,14.43
2018-09-05T00:12:16.899Z,14.39
2018-09-05T00:13:17.280Z,14.36
2018-09-05T00:14:16.611Z,14.32
2018-09-05T00:15:17.043Z,14.25
2018-09-05T00:16:16.315Z,14.16
2018-09-05T00:17:16.589Z,14.16
2018-09-05T00:18:16.857Z,14.16
2018-09-05T00:19:17.117Z,14.15
2018-09-05T00:20:16.402Z,14.16
2018-09-05T00:21:16.426Z,14.15
2018-09-05T00:22:16.702Z,14.13
2018-09-05T00:23:16.972Z,14.15
2018-09-05T00:24:16.240Z,14.15
2018-09-05T00:25:16.513Z,14.12
2018-09-05T00:26:16.776Z,14.11
2018-09-05T00:27:17.053Z,14.16
2018-09-05T00:28:16.330Z,14.16
2018-09-05T00:29:16.904Z,14.16
2018-09-05T00:30:17.179Z,14.16
2018-09-05T00:31:16.228Z,14.16
2018-09-05T00:32:16.539Z,14.12
2018-09-05T00:33:16.812Z,14.12
2018-09-05T00:34:17.087Z,14.07
2018-09-05T00:35:16.367Z,14.04
2018-09-05T00:36:16.629Z,13.98
2018-09-05T00:37:16.898Z,13.95
2018-09-05T00:38:17.379Z,13.91
2018-09-05T00:39:16.644Z,13.91
2018-09-05T00:40:16.943Z,13.94
2018-09-05T00:41:16.986Z,13.94
2018-09-05T00:42:16.257Z,13.94
2018-09-05T00:43:16.543Z,13.94
2018-09-05T00:44:16.813Z,13.92
2018-09-05T00:45:17.110Z,13.94
2018-09-05T00:46:16.390Z,13.94
2018-09-05T00:47:16.662Z,13.92
2018-09-05T00:48:16.940Z,13.95
2018-09-05T00:49:16.218Z,13.94
2018-09-05T00:50:16.492Z,13.91
2018-09-05T00:51:16.541Z,13.90
2018-09-05T00:52:16.807Z,13.88
2018-09-05T00:53:17.071Z,13.88
2018-09-05T00:54:16.653Z,13.84
2018-09-05T00:55:16.928Z,13.82
2018-09-05T00:56:17.205Z,13.82
2018-09-05T00:57:16.475Z,13.84
2018-09-05T00:58:16.740Z,13.82
2018-09-05T00:59:17.026Z,13.84
2018-09-05T01:00:16.306Z,13.80
2018-09-05T01:01:16.330Z,13.78
2018-09-05T01:02:16.604Z,13.78
2018-09-05T01:03:16.877Z,13.77
2018-09-05T01:04:17.146Z,13.77
2018-09-05T01:05:16.426Z,13.77
2018-09-05T01:06:16.697Z,13.73
2018-09-05T01:07:16.972Z,13.73
2018-09-05T01:08:16.239Z,13.70
2018-09-05T01:09:16.511Z,13.68
2018-09-05T01:10:16.797Z,13.67
2018-09-05T01:11:16.837Z,13.67
2018-09-05T01:12:17.114Z,13.67
2018-09-05T01:13:16.385Z,13.68
2018-09-05T01:14:16.649Z,13.68
2018-09-05T01:15:16.918Z,13.70
2018-09-05T01:16:17.197Z,13.68
2018-09-05T01:17:16.461Z,13.67
2018-09-05T01:18:16.741Z,13.63
2018-09-05T01:19:17.010Z,13.53
2018-09-05T01:20:16.280Z,13.53
2018-09-05T01:21:16.339Z,13.51
2018-09-05T01:22:16.612Z,13.49
2018-09-05T01:23:16.883Z,13.50
2018-09-05T01:24:17.212Z,13.51
2018-09-05T01:25:16.545Z,13.54
2018-09-05T01:26:16.818Z,13.47
2018-09-05T01:27:17.107Z,13.46
2018-09-05T01:28:16.373Z,13.44
2018-09-05T01:29:16.631Z,13.49
2018-09-05T01:30:16.904Z,13.49
2018-09-05T01:31:16.957Z,13.46
2018-09-05T01:32:16.226Z,13.43
2018-09-05T01:33:16.504Z,13.42
2018-09-05T01:34:16.787Z,13.39
2018-09-05T01:35:17.059Z,13.39
2018-09-05T01:36:16.317Z,13.39
2018-09-05T01:37:16.582Z,13.36
2018-09-05T01:38:16.856Z,13.39
2018-09-05T01:39:17.125Z,13.40
2018-09-05T01:40:16.427Z,13.40
2018-09-05T01:41:16.474Z,13.42
2018-09-05T01:42:16.743Z,13.42
2018-09-05T01:43:17.008Z,13.43
2018-09-05T01:44:16.279Z,13.43
2018-09-05T01:45:16.559Z,13.44
2018-09-05T01:46:16.884Z,13.51
2018-09-05T01:47:17.145Z,13.50
2018-09-05T01:48:16.446Z,13.53
2018-09-05T01:49:16.726Z,13.51
2018-09-05T01:50:17.020Z,13.50
2018-09-05T01:51:17.381Z,13.54
2018-09-05T01:52:16.647Z,13.55
2018-09-05T01:53:16.914Z,13.57
2018-09-05T01:54:17.183Z,13.51
2018-09-05T01:55:16.454Z,13.51
2018-09-05T01:56:16.715Z,13.50
2018-09-05T01:57:16.975Z,13.49
2018-09-05T01:58:16.250Z,13.49
2018-09-05T01:59:16.531Z,13.44
2018-09-05T02:00:16.814Z,13.44
2018-09-05T02:01:16.849Z,13.39
2018-09-05T02:02:17.615Z,13.39
2018-09-05T02:03:16.887Z,13.37
2018-09-05T02:04:17.154Z,13.37
2018-09-05T02:05:16.429Z,13.39
2018-09-05T02:06:16.691Z,13.42
2018-09-05T02:07:16.977Z,13.39
2018-09-05T02:08:16.249Z,13.37
2018-09-05T02:09:16.631Z,13.34
2018-09-05T02:10:16.906Z,13.34
2018-09-05T02:11:16.956Z,13.33
2018-09-05T02:12:16.234Z,13.32
2018-09-05T02:13:16.506Z,13.30
2018-09-05T02:14:16.769Z,13.30
2018-09-05T02:15:17.044Z,13.32
2018-09-05T02:16:16.312Z,13.30
2018-09-05T02:17:16.591Z,13.29
2018-09-05T02:18:16.854Z,13.26
2018-09-05T02:19:17.114Z,13.27
2018-09-05T02:20:16.391Z,13.29
2018-09-05T02:21:16.438Z,13.25
2018-09-05T02:22:16.718Z,13.29
2018-09-05T02:23:16.988Z,13.30
2018-09-05T02:24:16.253Z,13.29
2018-09-05T02:25:16.534Z,13.30
2018-09-05T02:26:16.793Z,13.32
2018-09-05T02:27:17.072Z,13.33
2018-09-05T02:28:16.338Z,13.36
2018-09-05T02:29:16.596Z,13.34
2018-09-05T02:30:16.889Z,13.36
2018-09-05T02:31:16.918Z,13.37
2018-09-05T02:32:17.197Z,13.33
2018-09-05T02:33:16.473Z,13.33
2018-09-05T02:34:16.764Z,13.30
2018-09-05T02:35:17.028Z,13.27
2018-09-05T02:36:16.293Z,13.23
2018-09-05T02:37:16.564Z,13.18
2018-09-05T02:38:16.838Z,13.18
2018-09-05T02:39:17.126Z,13.15
2018-09-05T02:40:16.443Z,13.12
2018-09-05T02:41:16.449Z,13.12
2018-09-05T02:42:16.714Z,13.12
2018-09-05T02:43:16.986Z,13.14
2018-09-05T02:44:16.249Z,13.15
2018-09-05T02:45:16.520Z,13.11
2018-09-05T02:46:16.788Z,13.11
2018-09-05T02:47:17.065Z,13.12
2018-09-05T02:48:16.353Z,13.08
2018-09-05T02:49:16.621Z,13.08
2018-09-05T02:50:16.909Z,13.08
2018-09-05T02:51:16.946Z,13.14
2018-09-05T02:52:16.219Z,13.14
2018-09-05T02:53:16.493Z,13.19
2018-09-05T02:54:16.769Z,13.19
2018-09-05T02:55:17.031Z,13.21
2018-09-05T02:56:16.302Z,13.19
2018-09-05T02:57:16.581Z,13.19
2018-09-05T02:58:16.842Z,13.22
2018-09-05T02:59:17.129Z,13.22
2018-09-05T03:00:15.783Z,13.26
2018-09-05T03:01:16.814Z,13.25
2018-09-05T03:02:17.088Z,13.18
2018-09-05T03:03:16.366Z,13.19
2018-09-05T03:04:16.635Z,13.15
2018-09-05T03:05:16.910Z,13.12
2018-09-05T03:06:17.194Z,13.12
2018-09-05T03:07:16.474Z,13.15
2018-09-05T03:08:16.752Z,13.15
2018-09-05T03:09:17.076Z,13.15
2018-09-05T03:10:16.394Z,13.18
2018-09-05T03:11:16.468Z,13.19
2018-09-05T03:12:16.750Z,13.18
2018-09-05T03:13:17.012Z,13.21
2018-09-05T03:14:16.290Z,13.21
2018-09-05T03:15:16.564Z,13.22
2018-09-05T03:16:16.836Z,13.23
2018-09-05T03:17:17.113Z,13.26
2018-09-05T03:18:16.391Z,13.27
2018-09-05T03:19:16.672Z,13.27
2018-09-05T03:20:16.953Z,13.30
2018-09-05T03:21:16.989Z,13.34
2018-09-05T03:22:16.259Z,13.32
2018-09-05T03:23:16.539Z,13.33
2018-09-05T03:24:16.808Z,13.30
2018-09-05T03:25:17.082Z,13.32
2018-09-05T03:26:16.352Z,13.32
2018-09-05T03:27:16.616Z,13.34
2018-09-05T03:28:16.882Z,13.36
2018-09-05T03:29:17.149Z,13.36
2018-09-05T03:30:16.453Z,13.36
2018-09-05T03:31:16.503Z,13.39
2018-09-05T03:32:16.856Z,13.33
2018-09-05T03:33:16.271Z,13.34
2018-09-05T03:34:16.554Z,13.33
2018-09-05T03:35:16.821Z,13.32
2018-09-05T03:36:17.404Z,13.29
2018-09-05T03:37:16.683Z,13.34
2018-09-05T03:38:16.949Z,13.30
2018-09-05T03:39:16.214Z,13.30
2018-09-05T03:40:16.495Z,13.33
2018-09-05T03:41:16.548Z,13.34
2018-09-05T03:42:16.834Z,13.34
2018-09-05T03:43:17.110Z,13.37
2018-09-05T03:44:16.381Z,13.36
2018-09-05T03:45:16.666Z,13.37
2018-09-05T03:46:16.938Z,13.37
2018-09-05T03:47:16.308Z,13.36
2018-09-05T03:48:16.587Z,13.39
2018-09-05T03:49:16.859Z,13.39
2018-09-05T03:50:17.139Z,13.43
2018-09-05T03:51:17.217Z,13.46
2018-09-05T03:52:16.484Z,13.44
2018-09-05T03:53:16.756Z,13.47
2018-09-05T03:54:17.035Z,13.43
2018-09-05T03:55:16.312Z,13.44
2018-09-05T03:56:16.590Z,13.44
2018-09-05T03:57:16.880Z,13.44
2018-09-05T03:58:17.148Z,13.47
2018-09-05T03:59:16.423Z,13.47
2018-09-05T04:00:16.701Z,13.49
2018-09-05T04:01:16.764Z,13.47
2018-09-05T04:02:17.038Z,13.47
2018-09-05T04:03:16.305Z,13.47
2018-09-05T04:04:16.575Z,13.49
2018-09-05T04:05:16.845Z,13.50
2018-09-05T04:06:17.112Z,13.51
2018-09-05T04:07:16.389Z,13.49
2018-09-05T04:08:16.654Z,13.51
2018-09-05T04:09:16.926Z,13.51
2018-09-05T04:10:17.232Z,13.49
2018-09-05T04:11:16.250Z,13.50
2018-09-05T04:12:16.619Z,13.55
2018-09-05T04:13:17.062Z,13.54
2018-09-05T04:14:16.331Z,13.55
2018-09-05T04:15:16.605Z,13.54
2018-09-05T04:16:16.875Z,13.57
2018-09-05T04:17:17.148Z,13.58
2018-09-05T04:18:16.729Z,13.57
2018-09-05T04:19:16.995Z,13.60
2018-09-05T04:20:16.276Z,13.61
2018-09-05T04:21:16.308Z,13.54
2018-09-05T04:22:16.582Z,13.57
2018-09-05T04:23:16.853Z,13.54
2018-09-05T04:24:17.123Z,13.54
2018-09-05T04:25:16.410Z,13.55
2018-09-05T04:26:16.689Z,13.54
2018-09-05T04:27:16.968Z,13.54
2018-09-05T04:28:16.233Z,13.54
2018-09-05T04:29:16.532Z,13.53
2018-09-05T04:30:16.871Z,13.55
2018-09-05T04:31:16.884Z,13.55
2018-09-05T04:32:17.153Z,13.51
2018-09-05T04:33:16.425Z,13.53
2018-09-05T04:34:16.693Z,13.54
2018-09-05T04:35:16.951Z,13.53
2018-09-05T04:36:16.214Z,13.57
2018-09-05T04:37:16.489Z,13.55
2018-09-05T04:38:16.772Z,13.54
2018-09-05T04:39:17.049Z,13.51
2018-09-05T04:40:16.328Z,13.51
2018-09-05T04:41:16.376Z,13.51
2018-09-05T04:42:16.641Z,13.57
2018-09-05T04:43:16.915Z,13.61
2018-09-05T04:44:17.192Z,13.61
2018-09-05T04:45:16.569Z,13.64
2018-09-05T04:46:17.027Z,13.64
2018-09-05T04:47:16.301Z,13.64
2018-09-05T04:48:16.571Z,13.64
2018-09-05T04:49:16.832Z,13.65
2018-09-05T04:50:17.107Z,13.68
2018-09-05T04:51:17.151Z,13.67
2018-09-05T04:52:16.439Z,13.63
2018-09-05T04:53:16.708Z,13.68
2018-09-05T04:54:16.973Z,13.70
2018-09-05T04:55:16.267Z,13.70
2018-09-05T04:56:16.536Z,13.70
2018-09-05T04:57:16.811Z,13.71
2018-09-05T04:58:17.151Z,13.67
2018-09-05T04:59:16.447Z,13.67
2018-09-05T05:00:16.718Z,13.68
2018-09-05T05:01:16.755Z,13.68
2018-09-05T05:02:17.024Z,13.67
2018-09-05T05:03:16.287Z,13.57
2018-09-05T05:04:16.583Z,13.51
2018-09-05T05:05:16.852Z,13.55
2018-09-05T05:06:17.127Z,13.57
2018-09-05T05:07:16.402Z,13.57
2018-09-05T05:08:16.670Z,13.54
2018-09-05T05:09:16.944Z,13.57
2018-09-05T05:10:16.225Z,13.58
2018-09-05T05:11:16.276Z,13.57
2018-09-05T05:12:16.552Z,13.60
2018-09-05T05:13:16.826Z,13.58
2018-09-05T05:14:17.433Z,13.58
2018-09-05T05:15:16.711Z,13.51
2018-09-05T05:16:16.988Z,13.53
2018-09-05T05:17:16.264Z,13.54
2018-09-05T05:18:16.542Z,13.53
2018-09-05T05:19:16.818Z,13.57
2018-09-05T05:20:17.094Z,13.63
2018-09-05T05:21:17.136Z,13.65
2018-09-05T05:22:16.401Z,13.68
2018-09-05T05:23:16.672Z,13.74
2018-09-05T05:24:16.946Z,13.70
2018-09-05T05:25:16.216Z,13.73
2018-09-05T05:26:16.485Z,13.73
2018-09-05T05:27:16.764Z,13.58
2018-09-05T05:28:17.033Z,13.57
2018-09-05T05:29:16.316Z,13.65
2018-09-05T05:30:16.597Z,13.64
2018-09-05T05:31:16.640Z,13.70
2018-09-05T05:32:16.910Z,13.60
2018-09-05T05:33:17.172Z,13.58
2018-09-05T05:34:16.441Z,13.64
2018-09-05T05:35:16.734Z,13.58
2018-09-05T05:36:17.031Z,13.58
2018-09-05T05:37:16.306Z,13.64
2018-09-05T05:38:16.585Z,13.70
2018-09-05T05:39:16.850Z,13.70
2018-09-05T05:40:17.283Z,13.64
2018-09-05T05:41:17.165Z,13.68
2018-09-05T05:42:16.437Z,13.74
2018-09-05T05:43:16.715Z,13.82
2018-09-05T05:44:16.986Z,13.85
2018-09-05T05:45:16.431Z,13.92
2018-09-05T05:46:16.703Z,13.81
2018-09-05T05:47:16.969Z,13.87
2018-09-05T05:48:16.232Z,13.88
2018-09-05T05:49:16.500Z,13.87
2018-09-05T05:50:16.787Z,13.87
2018-09-05T05:51:16.850Z,13.95
2018-09-05T05:52:17.135Z,13.95
2018-09-05T05:53:16.403Z,13.94
2018-09-05T05:54:16.680Z,13.92
2018-09-05T05:55:16.958Z,13.92
2018-09-05T05:56:16.226Z,13.87
2018-09-05T05:57:16.499Z,13.85
2018-09-05T05:58:16.782Z,13.77
2018-09-05T05:59:17.053Z,13.73
2018-09-05T06:00:16.342Z,13.81
2018-09-05T06:01:16.489Z,13.82
2018-09-05T06:02:16.952Z,13.82
2018-09-05T06:03:16.207Z,13.74
2018-09-05T06:04:16.490Z,13.76
2018-09-05T06:05:16.775Z,13.87
2018-09-05T06:06:17.171Z,13.92
2018-09-05T06:07:16.797Z,13.92
2018-09-05T06:08:17.066Z,13.67
2018-09-05T06:09:16.343Z,13.71
2018-09-05T06:10:16.633Z,13.70
2018-09-05T06:11:16.665Z,13.63
2018-09-05T06:12:16.946Z,13.70
2018-09-05T06:13:16.212Z,13.70
2018-09-05T06:14:16.472Z,13.74
2018-09-05T06:15:16.746Z,13.67
2018-09-05T06:16:17.067Z,13.80
2018-09-05T06:17:16.337Z,13.76
2018-09-05T06:18:16.602Z,13.70
2018-09-05T06:19:16.868Z,13.78
2018-09-05T06:20:17.165Z,13.82
2018-09-05T06:21:17.192Z,13.90
2018-09-05T06:22:16.458Z,13.82
2018-09-05T06:23:16.735Z,13.85
2018-09-05T06:24:17.010Z,13.78
2018-09-05T06:25:16.273Z,13.80
2018-09-05T06:26:16.556Z,13.84
2018-09-05T06:27:16.829Z,13.73
2018-09-05T06:28:17.090Z,13.80
2018-09-05T06:29:16.359Z,13.74
2018-09-05T06:30:16.700Z,13.73
2018-09-05T06:31:16.779Z,13.77
2018-09-05T06:32:16.667Z,13.80
2018-09-05T06:33:16.943Z,13.80
2018-09-05T06:34:16.246Z,13.85
2018-09-05T06:35:16.629Z,13.76
2018-09-05T06:36:16.897Z,13.88
2018-09-05T06:37:17.163Z,13.87
2018-09-05T06:38:16.433Z,14.01
2018-09-05T06:39:16.704Z,14.04
2018-09-05T06:40:16.991Z,14.08
2018-09-05T06:41:17.021Z,14.07
2018-09-05T06:42:16.288Z,14.07
2018-09-05T06:43:16.557Z,14.07
2018-09-05T06:44:16.826Z,14.15
2018-09-05T06:45:17.163Z,14.18
2018-09-05T06:46:16.484Z,14.26
2018-09-05T06:47:16.769Z,14.30
2018-09-05T06:48:17.045Z,14.32
2018-09-05T06:49:16.311Z,14.26
2018-09-05T06:50:16.591Z,14.33
2018-09-05T06:51:16.654Z,14.30
2018-09-05T06:52:16.978Z,14.25
2018-09-05T06:53:16.257Z,14.30
2018-09-05T06:54:16.533Z,14.32
2018-09-05T06:55:16.797Z,14.16
2018-09-05T06:56:17.072Z,14.19
2018-09-05T06:57:16.353Z,14.28
2018-09-05T06:58:16.747Z,14.15
2018-09-05T06:59:17.147Z,14.30
2018-09-05T07:00:16.428Z,14.49
2018-09-05T07:01:16.461Z,14.63
2018-09-05T07:02:16.725Z,14.62
2018-09-05T07:03:16.994Z,14.30
2018-09-05T07:04:16.263Z,14.32
2018-09-05T07:05:16.541Z,14.41
2018-09-05T07:06:16.804Z,14.55
2018-09-05T07:07:17.099Z,14.47
2018-09-05T07:08:16.373Z,14.63
2018-09-05T07:09:16.640Z,14.74
2018-09-05T07:10:16.917Z,14.71
2018-09-05T07:11:16.980Z,14.64
2018-09-05T07:12:16.258Z,14.77
2018-09-05T07:13:16.539Z,14.92
2018-09-05T07:14:16.870Z,15.01
2018-09-05T07:15:16.371Z,15.11
2018-09-05T07:16:16.645Z,15.08
2018-09-05T07:17:16.911Z,15.15
2018-09-05T07:18:17.173Z,15.05
2018-09-05T07:19:16.475Z,15.01
2018-09-05T07:20:16.767Z,15.05
2018-09-05T07:21:16.831Z,15.19
2018-09-05T07:22:16.309Z,15.32
2018-09-05T07:23:16.575Z,15.46
2018-09-05T07:24:16.896Z,15.47
2018-09-05T07:25:17.170Z,15.60
2018-09-05T07:26:16.438Z,15.66
2018-09-05T07:27:16.703Z,15.69
2018-09-05T07:28:16.970Z,15.54
2018-09-05T07:29:16.235Z,15.47
2018-09-05T07:30:16.533Z,15.47
2018-09-05T07:31:16.566Z,15.47
2018-09-05T07:32:16.844Z,15.53
2018-09-05T07:33:17.125Z,15.52
2018-09-05T07:34:16.390Z,15.56
2018-09-05T07:35:16.656Z,15.56
2018-09-05T07:36:16.929Z,15.59
2018-09-05T07:37:17.479Z,15.63
2018-09-05T07:38:16.763Z,15.60
2018-09-05T07:39:17.049Z,15.60
2018-09-05T07:40:16.329Z,15.64
2018-09-05T07:41:16.383Z,15.84
2018-09-05T07:42:16.650Z,15.87
2018-09-05T07:43:16.941Z,15.90
2018-09-05T07:44:16.208Z,15.91
2018-09-05T07:45:16.479Z,15.94
2018-09-05T07:46:16.746Z,15.97
2018-09-05T07:47:17.015Z,16.02
2018-09-05T07:48:16.283Z,16.11
2018-09-05T07:49:16.558Z,16.12
2018-09-05T07:50:16.828Z,16.19
2018-09-05T07:51:16.868Z,16.19
2018-09-05T07:52:17.131Z,16.14
2018-09-05T07:53:16.395Z,16.09
2018-09-05T07:54:16.665Z,16.19
2018-09-05T07:55:16.935Z,16.33
2018-09-05T07:56:17.204Z,16.33
2018-09-05T07:57:16.550Z,16.40
2018-09-05T07:58:16.873Z,16.43
2018-09-05T07:59:17.169Z,16.49
2018-09-05T08:00:16.478Z,16.50
2018-09-05T08:01:16.529Z,16.56
2018-09-05T08:02:16.799Z,16.68
2018-09-05T08:03:17.075Z,16.70
2018-09-05T08:04:16.348Z,16.73
2018-09-05T08:05:16.630Z,16.78
2018-09-05T08:06:16.904Z,16.90
2018-09-05T08:07:17.177Z,17.00
2018-09-05T08:08:16.455Z,16.97
2018-09-05T08:09:16.727Z,17.04
2018-09-05T08:10:17.010Z,17.03
2018-09-05T08:11:17.045Z,17.07
2018-09-05T08:12:16.319Z,17.05
2018-09-05T08:13:16.590Z,17.15
2018-09-05T08:14:16.856Z,17.19
2018-09-05T08:15:17.133Z,17.29
2018-09-05T08:16:16.410Z,17.29
2018-09-05T08:17:16.684Z,17.39
2018-09-05T08:18:16.995Z,17.39
2018-09-05T08:19:16.266Z,17.42
2018-09-05T08:20:16.551Z,17.54
2018-09-05T08:21:16.583Z,17.63
2018-09-05T08:22:16.857Z,17.68
2018-09-05T08:23:17.146Z,17.79
2018-09-05T08:24:16.521Z,17.77
2018-09-05T08:25:17.057Z,17.90
2018-09-05T08:26:16.335Z,17.97
2018-09-05T08:27:16.595Z,18.07
2018-09-05T08:28:16.869Z,18.04
2018-09-05T08:29:17.226Z,17.98
2018-09-05T08:30:16.673Z,18.01
2018-09-05T08:31:16.718Z,18.07
2018-09-05T08:32:16.989Z,18.14
2018-09-05T08:33:16.266Z,18.17
2018-09-05T08:34:16.540Z,18.21
2018-09-05T08:35:16.971Z,18.24
2018-09-05T08:36:17.271Z,18.29
2018-09-05T08:37:16.979Z,18.32
2018-09-05T08:38:17.129Z,18.38
2018-09-05T08:39:16.656Z,18.44
2018-09-05T08:40:16.936Z,18.52
2018-09-05T08:41:17.051Z,18.59
2018-09-05T08:42:16.684Z,18.73
2018-09-05T08:43:17.073Z,18.77
2018-09-05T08:44:16.380Z,18.82
2018-09-05T08:45:17.287Z,18.82
2018-09-05T08:46:17.158Z,18.86
2018-09-05T08:47:16.872Z,18.84
2018-09-05T08:48:16.341Z,19.08
2018-09-05T08:49:16.838Z,19.13
2018-09-05T08:50:17.109Z,19.10
2018-09-05T08:51:17.160Z,19.15
2018-09-05T08:52:16.439Z,19.22
2018-09-05T08:53:16.711Z,19.27
2018-09-05T08:54:17.015Z,19.25
2018-09-05T08:55:16.367Z,19.44
2018-09-05T08:56:16.872Z,19.32
2018-09-05T08:57:16.374Z,19.30
2018-09-05T08:58:16.638Z,19.44
2018-09-05T08:59:16.912Z,19.51
2018-09-05T09:00:17.206Z,19.56
2018-09-05T09:01:16.275Z,19.58
2018-09-05T09:02:16.532Z,19.56
2018-09-05T09:03:16.793Z,19.62
2018-09-05T09:04:17.062Z,19.60
2018-09-05T09:05:16.332Z,19.63
2018-09-05T09:06:16.606Z,19.74
2018-09-05T09:07:16.881Z,19.73
2018-09-05T09:08:17.161Z,19.74
2018-09-05T09:09:16.432Z,19.73
2018-09-05T09:10:16.702Z,19.76
2018-09-05T09:11:16.742Z,19.69
2018-09-05T09:12:17.004Z,19.70
2018-09-05T09:13:16.279Z,19.83
2018-09-05T09:14:16.562Z,19.89
2018-09-05T09:15:16.855Z,20.00
2018-09-05T09:16:17.144Z,20.00
2018-09-05T09:17:16.418Z,20.16
2018-09-05T09:18:16.691Z,20.16
2018-09-05T09:19:16.961Z,20.17
2018-09-05T09:20:16.242Z,20.14
2018-09-05T09:21:16.282Z,20.14
2018-09-05T09:22:16.548Z,20.07
2018-09-05T09:23:16.825Z,20.13
2018-09-05T09:24:17.099Z,20.16
2018-09-05T09:25:16.405Z,20.21
2018-09-05T09:26:16.688Z,20.27
2018-09-05T09:27:16.958Z,20.49
2018-09-05T09:28:16.269Z,20.55
2018-09-05T09:29:16.648Z,20.56
2018-09-05T09:30:16.943Z,20.60
2018-09-05T09:31:16.981Z,20.46
2018-09-05T09:32:16.240Z,20.42
2018-09-05T09:33:16.511Z,20.42
2018-09-05T09:34:16.785Z,20.56
2018-09-05T09:35:17.068Z,20.58
2018-09-05T09:36:16.471Z,20.58
2018-09-05T09:37:16.736Z,20.73
2018-09-05T09:38:17.018Z,20.78
2018-09-05T09:39:16.284Z,20.83
2018-09-05T09:40:16.569Z,20.80
2018-09-05T09:41:16.616Z,20.83
2018-09-05T09:42:16.889Z,20.93
2018-09-05T09:43:17.158Z,20.90
2018-09-05T09:44:16.427Z,20.97
2018-09-05T09:45:16.704Z,21.00
2018-09-05T09:46:16.968Z,21.03
2018-09-05T09:47:16.237Z,21.07
2018-09-05T09:48:16.522Z,21.34
2018-09-05T09:49:16.792Z,21.27
2018-09-05T09:50:17.071Z,21.15
2018-09-05T09:51:17.120Z,21.20
2018-09-05T09:52:16.406Z,21.38
2018-09-05T09:53:16.733Z,21.42
2018-09-05T09:54:17.012Z,21.42
2018-09-05T09:55:16.294Z,21.45
2018-09-05T09:56:16.568Z,21.45
2018-09-05T09:57:16.829Z,21.62
2018-09-05T09:58:17.095Z,21.70
2018-09-05T09:59:16.367Z,21.73
2018-09-05T10:00:16.654Z,21.70
2018-09-05T10:01:16.699Z,21.64
2018-09-05T10:02:16.972Z,21.64
2018-09-05T10:03:16.313Z,21.72
2018-09-05T10:04:16.637Z,21.76
2018-09-05T10:05:16.904Z,21.76
2018-09-05T10:06:17.177Z,21.75
2018-09-05T10:07:16.504Z,21.69
2018-09-05T10:08:16.842Z,21.68
2018-09-05T10:09:17.109Z,21.76
2018-09-05T10:10:16.549Z,22.00
2018-09-05T10:11:16.436Z,22.13
2018-09-05T10:12:16.699Z,22.20
2018-09-05T10:13:16.974Z,22.20
2018-09-05T10:14:16.236Z,22.26
2018-09-05T10:15:16.523Z,22.26
2018-09-05T10:16:16.790Z,22.23
2018-09-05T10:17:17.073Z,22.35
2018-09-05T10:18:16.360Z,22.37
2018-09-05T10:19:16.622Z,22.44
2018-09-05T10:20:16.907Z,22.55
2018-09-05T10:21:16.943Z,22.67
2018-09-05T10:22:16.221Z,22.65
2018-09-05T10:23:16.510Z,22.74
2018-09-05T10:24:16.778Z,22.68
2018-09-05T10:25:17.058Z,22.75
2018-09-05T10:26:16.327Z,23.02
2018-09-05T10:27:16.593Z,23.02
2018-09-05T10:28:16.859Z,23.26
2018-09-05T10:29:17.131Z,23.22
2018-09-05T10:30:16.408Z,23.23
2018-09-05T10:31:16.453Z,23.19
2018-09-05T10:32:16.720Z,23.19
2018-09-05T10:33:16.988Z,23.20
2018-09-05T10:34:16.265Z,23.44
2018-09-05T10:35:16.534Z,23.43
2018-09-05T10:36:16.806Z,23.53
2018-09-05T10:37:17.079Z,23.51
2018-09-05T10:38:16.349Z,23.47
2018-09-05T10:39:16.629Z,23.51
2018-09-05T10:40:16.906Z,23.46
2018-09-05T10:41:16.944Z,23.23
2018-09-05T10:42:16.213Z,23.32
2018-09-05T10:43:16.483Z,23.36
2018-09-05T10:44:16.880Z,23.53
2018-09-05T10:45:16.261Z,23.48
2018-09-05T10:46:16.529Z,23.33
2018-09-05T10:47:16.814Z,23.36
2018-09-05T10:48:17.090Z,23.41
2018-09-05T10:49:16.362Z,23.69
2018-09-05T10:50:16.643Z,23.81
2018-09-05T10:51:16.682Z,23.88
2018-09-05T10:52:16.955Z,24.02
2018-09-05T10:53:16.222Z,24.08
2018-09-05T10:54:16.499Z,24.22
2018-09-05T10:55:16.761Z,24.06
2018-09-05T10:56:17.024Z,24.19
2018-09-05T10:57:16.296Z,24.19
2018-09-05T10:58:16.653Z,24.33
2018-09-05T10:59:16.224Z,24.29
2018-09-05T11:00:16.509Z,24.44
2018-09-05T11:01:16.553Z,24.49
2018-09-05T11:02:16.828Z,24.57
2018-09-05T11:03:17.112Z,24.70
2018-09-05T11:04:16.408Z,24.77
2018-09-05T11:05:16.879Z,24.85
2018-09-05T11:06:17.160Z,24.88
2018-09-05T11:07:16.443Z,24.80
2018-09-05T11:08:16.731Z,25.18
2018-09-05T11:09:16.999Z,25.07
2018-09-05T11:10:16.336Z,25.14
2018-09-05T11:11:16.359Z,25.30
2018-09-05T11:12:16.628Z,25.32
2018-09-05T11:13:16.890Z,25.15
2018-09-05T11:14:17.163Z,25.18
2018-09-05T11:15:16.632Z,25.23
2018-09-05T11:16:16.907Z,25.36
2018-09-05T11:17:17.179Z,25.33
2018-09-05T11:18:16.469Z,25.28
2018-09-05T11:19:16.735Z,25.25
2018-09-05T11:20:17.425Z,25.32
2018-09-05T11:21:17.125Z,25.40
2018-09-05T11:22:16.485Z,25.33
2018-09-05T11:23:16.751Z,25.47
2018-09-05T11:24:17.029Z,25.67
2018-09-05T11:25:16.305Z,25.84
2018-09-05T11:26:16.579Z,25.93
2018-09-05T11:27:16.860Z,25.66
2018-09-05T11:28:17.130Z,25.47
2018-09-05T11:29:16.403Z,25.47
2018-09-05T11:30:16.693Z,25.47
2018-09-05T11:31:16.722Z,25.32
2018-09-05T11:32:16.990Z,25.47
2018-09-05T11:33:16.261Z,25.18
2018-09-05T11:34:16.537Z,24.32
2018-09-05T11:35:16.808Z,24.59
2018-09-05T11:36:16.517Z,24.80
2018-09-05T11:37:16.784Z,24.74
2018-09-05T11:38:17.053Z,24.56
2018-09-05T11:39:16.331Z,24.54
2018-09-05T11:40:16.666Z,24.63
2018-09-05T11:41:16.707Z,24.74
2018-09-05T11:42:16.971Z,24.88
2018-09-05T11:43:16.242Z,25.07
2018-09-05T11:44:16.518Z,25.12
2018-09-05T11:45:16.785Z,25.12
2018-09-05T11:46:17.042Z,25.01
2018-09-05T11:47:16.317Z,25.08
2018-09-05T11:48:16.579Z,25.02
2018-09-05T11:49:16.848Z,24.84
2018-09-05T11:50:17.298Z,24.74
2018-09-05T11:51:17.193Z,24.53
2018-09-05T11:52:16.470Z,24.54
2018-09-05T11:53:16.736Z,24.56
2018-09-05T11:54:17.001Z,24.61
2018-09-05T11:55:16.309Z,24.66
2018-09-05T11:56:16.580Z,24.49
2018-09-05T11:57:16.865Z,24.60
2018-09-05T11:58:16.243Z,24.82
2018-09-05T11:59:16.520Z,24.81
2018-09-05T12:00:16.791Z,24.66
2018-09-05T12:01:16.845Z,24.59
2018-09-05T12:02:17.174Z,24.50
2018-09-05T12:03:16.642Z,24.59
2018-09-05T12:04:16.913Z,24.61
2018-09-05T12:05:17.199Z,24.56
2018-09-05T12:06:16.474Z,24.44
2018-09-05T12:07:16.750Z,24.42
2018-09-05T12:08:17.013Z,24.59
2018-09-05T12:09:16.286Z,24.63
2018-09-05T12:10:16.562Z,24.66
2018-09-05T12:11:16.612Z,24.67
2018-09-05T12:12:17.013Z,24.66
2018-09-05T12:13:16.441Z,24.60
2018-09-05T12:14:16.717Z,24.57
2018-09-05T12:15:17.001Z,24.42
2018-09-05T12:16:16.293Z,24.47
2018-09-05T12:17:16.565Z,24.38
2018-09-05T12:18:16.829Z,24.33
2018-09-05T12:19:17.102Z,24.22
2018-09-05T12:20:16.388Z,24.26
2018-09-05T12:21:16.428Z,24.22
2018-09-05T12:22:16.701Z,24.22
2018-09-05T12:23:16.963Z,24.17
2018-09-05T12:24:16.238Z,24.12
2018-09-05T12:25:16.528Z,24.08
2018-09-05T12:26:16.811Z,24.08
2018-09-05T12:27:17.093Z,24.09
2018-09-05T12:28:16.365Z,24.22
2018-09-05T12:29:16.636Z,24.30
2018-09-05T12:30:16.911Z,24.39
2018-09-05T12:31:16.969Z,24.38
2018-09-05T12:32:16.246Z,24.38
2018-09-05T12:33:16.508Z,24.32
2018-09-05T12:34:16.782Z,24.42
2018-09-05T12:35:17.049Z,24.44
2018-09-05T12:36:16.321Z,24.59
2018-09-05T12:37:16.592Z,24.53
2018-09-05T12:38:16.879Z,24.43
2018-09-05T12:39:16.264Z,24.32
2018-09-05T12:40:16.547Z,24.20
2018-09-05T12:41:16.581Z,24.05
2018-09-05T12:42:16.863Z,24.12
2018-09-05T12:43:17.133Z,24.27
2018-09-05T12:44:16.401Z,24.32
2018-09-05T12:45:16.665Z,24.29
2018-09-05T12:46:16.933Z,24.36
2018-09-05T12:47:17.209Z,24.36
2018-09-05T12:48:16.485Z,24.40
2018-09-05T12:49:16.769Z,24.56
2018-09-05T12:50:17.053Z,24.63
2018-09-05T12:51:17.097Z,24.56
2018-09-05T12:52:16.370Z,24.50